createdAt,value
2019-06-26T00:00:50.894Z,3.43
2019-06-26T00:03:21.962Z,3.67
2019-06-26T00:05:53.142Z,3.40
2019-06-26T00:08:24.254Z,3.23
2019-06-26T00:10:55.300Z,3.27
2019-06-26T00:13:27.121Z,3.63
2019-06-26T00:15:58.171Z,3.62
2019-06-26T00:18:29.269Z,3.23
2019-06-26T00:21:00.284Z,3.37
2019-06-26T00:23:32.207Z,3.90
2019-06-26T00:26:03.304Z,3.42
2019-06-26T00:28:34.305Z,3.80
2019-06-26T00:31:05.390Z,3.45
2019-06-26T00:33:36.442Z,3.22
2019-06-26T00:36:07.573Z,3.72
2019-06-26T00:38:40.183Z,4.12
2019-06-26T00:41:11.409Z,3.00
2019-06-26T00:43:42.963Z,3.00
2019-06-26T00:46:14.101Z,3.47
2019-06-26T00:48:45.160Z,3.40
2019-06-26T00:51:16.184Z,3.87
2019-06-26T00:53:47.175Z,3.33
2019-06-26T00:56:18.192Z,3.02
2019-06-26T00:58:49.277Z,3.57
2019-06-26T01:01:20.411Z,3.30
2019-06-26T01:03:54.620Z,3.87
2019-06-26T01:06:44.145Z,3.60
2019-06-26T01:09:16.292Z,3.27
2019-06-26T01:11:47.465Z,3.55
2019-06-26T01:14:18.468Z,3.57
2019-06-26T01:16:49.839Z,3.27
2019-06-26T01:19:20.891Z,3.80
2019-06-26T01:21:53.098Z,3.42
2019-06-26T01:24:24.634Z,3.47
2019-06-26T01:26:55.991Z,3.53
2019-06-26T01:29:26.992Z,3.50
2019-06-26T01:31:58.018Z,3.43
2019-06-26T01:34:29.034Z,3.00
2019-06-26T01:37:00.068Z,3.37
2019-06-26T01:39:32.301Z,3.90
2019-06-26T01:42:03.310Z,3.63
2019-06-26T01:44:34.398Z,3.57
2019-06-26T01:47:05.565Z,3.45
2019-06-26T01:49:37.735Z,3.40
2019-06-26T01:52:08.747Z,3.33
2019-06-26T01:54:39.761Z,3.00
2019-06-26T01:57:10.800Z,3.20
2019-06-26T01:59:41.883Z,3.90
2019-06-26T02:02:13.015Z,3.65
2019-06-26T02:04:44.014Z,3.95
2019-06-26T02:07:15.023Z,3.53
2019-06-26T02:09:46.091Z,3.60
2019-06-26T02:12:17.184Z,3.30
2019-06-26T02:14:48.334Z,3.43
2019-06-26T02:17:19.347Z,3.22
2019-06-26T02:19:50.363Z,3.47
2019-06-26T02:22:21.448Z,3.50
2019-06-26T02:24:53.170Z,3.77
2019-06-26T02:27:24.449Z,3.80
2019-06-26T02:30:15.048Z,3.40
2019-06-26T02:32:46.156Z,3.17
2019-06-26T02:35:17.425Z,3.92
2019-06-26T02:37:48.506Z,3.77
2019-06-26T02:40:19.876Z,3.50
2019-06-26T02:42:50.894Z,3.92
2019-06-26T02:45:22.161Z,4.17
2019-06-26T02:47:53.158Z,3.37
2019-06-26T02:50:24.152Z,3.17
2019-06-26T02:52:55.170Z,3.80
2019-06-26T02:55:26.163Z,3.37
2019-06-26T02:57:57.255Z,3.33
2019-06-26T03:00:28.333Z,3.62
2019-06-26T03:02:59.378Z,3.67
2019-06-26T03:05:30.434Z,3.30
2019-06-26T03:08:01.446Z,3.67
2019-06-26T03:10:32.538Z,3.40
2019-06-26T03:13:03.541Z,3.83
2019-06-26T03:15:35.328Z,3.58
2019-06-26T03:18:06.445Z,3.33
2019-06-26T03:20:43.156Z,3.43
2019-06-26T03:23:14.169Z,3.47
2019-06-26T03:25:45.163Z,3.10
2019-06-26T03:28:16.264Z,3.67
2019-06-26T03:30:47.614Z,4.17
2019-06-26T03:33:18.762Z,3.87
2019-06-26T03:35:49.832Z,3.80
2019-06-26T03:38:20.844Z,3.80
2019-06-26T03:40:53.154Z,3.73
2019-06-26T03:43:24.286Z,3.57
2019-06-26T03:45:55.335Z,3.53
2019-06-26T03:48:26.388Z,3.60
2019-06-26T03:50:57.459Z,3.70
2019-06-26T03:53:28.497Z,3.67
2019-06-26T03:55:59.500Z,3.37
2019-06-26T03:58:30.497Z,3.27
2019-06-26T04:01:01.879Z,3.23
2019-06-26T04:03:32.880Z,3.80
2019-06-26T04:06:04.013Z,3.70
2019-06-26T04:08:35.037Z,3.47
2019-06-26T04:11:06.201Z,3.27
2019-06-26T04:13:37.794Z,3.27
2019-06-26T04:16:08.791Z,3.60
2019-06-26T04:18:40.091Z,3.70
2019-06-26T04:21:11.330Z,3.67
2019-06-26T04:23:42.349Z,3.83
2019-06-26T04:26:13.458Z,3.70
2019-06-26T04:28:44.506Z,4.03
2019-06-26T04:31:15.596Z,3.72
2019-06-26T04:33:46.619Z,3.87
2019-06-26T04:36:17.869Z,3.47
2019-06-26T04:38:48.886Z,3.33
2019-06-26T04:41:20.294Z,3.37
2019-06-26T04:43:51.302Z,3.53
2019-06-26T04:46:22.665Z,3.90
2019-06-26T04:48:53.674Z,4.10
2019-06-26T04:51:24.672Z,3.52
2019-06-26T04:53:55.848Z,3.63
2019-06-26T04:56:27.097Z,3.33
2019-06-26T04:58:59.171Z,3.50
2019-06-26T05:01:30.181Z,3.97
2019-06-26T05:04:01.261Z,3.40
2019-06-26T05:06:32.285Z,3.43
2019-06-26T05:09:03.424Z,4.00
2019-06-26T05:11:36.156Z,3.30
2019-06-26T05:14:08.379Z,3.66
2019-06-26T05:16:39.474Z,3.20
2019-06-26T05:19:10.487Z,4.10
2019-06-26T05:21:41.556Z,3.57
2019-06-26T05:24:12.616Z,3.75
2019-06-26T05:26:43.618Z,3.50
2019-06-26T05:29:13.856Z,3.67
2019-06-26T05:31:44.846Z,3.57
2019-06-26T05:34:16.977Z,3.35
2019-06-26T05:36:48.057Z,3.27
2019-06-26T05:39:19.171Z,3.80
2019-06-26T05:41:50.499Z,3.13
2019-06-26T05:44:21.522Z,2.98
2019-06-26T05:46:53.619Z,3.47
2019-06-26T05:49:24.763Z,3.50
2019-06-26T05:51:57.618Z,3.53
2019-06-26T05:54:28.632Z,3.40
2019-06-26T05:57:01.137Z,3.40
2019-06-26T05:59:32.506Z,3.37
2019-06-26T06:02:03.600Z,3.52
2019-06-26T06:04:34.591Z,4.10
2019-06-26T06:07:05.624Z,3.20
2019-06-26T06:09:36.999Z,3.67
2019-06-26T06:12:09.490Z,3.30
2019-06-26T06:14:40.600Z,3.53
2019-06-26T06:17:11.738Z,3.63
2019-06-26T06:19:43.286Z,3.43
2019-06-26T06:22:14.346Z,3.70
2019-06-26T06:24:45.355Z,3.90
2019-06-26T06:27:16.455Z,4.23
2019-06-26T06:29:47.562Z,3.57
2019-06-26T06:32:18.750Z,3.47
2019-06-26T06:34:50.247Z,3.92
2019-06-26T06:37:21.254Z,3.27
2019-06-26T06:39:52.441Z,3.60
2019-06-26T06:42:23.502Z,3.87
2019-06-26T06:44:54.604Z,3.83
2019-06-26T06:47:25.626Z,3.73
2019-06-26T06:49:56.655Z,4.17
2019-06-26T06:52:27.760Z,4.10
2019-06-26T06:54:58.754Z,3.42
2019-06-26T06:57:29.766Z,3.85
2019-06-26T07:00:00.929Z,3.77
2019-06-26T07:02:33.730Z,3.90
2019-06-26T07:05:05.037Z,3.62
2019-06-26T07:07:36.168Z,3.80
2019-06-26T07:10:07.599Z,3.43
2019-06-26T07:12:38.683Z,3.33
2019-06-26T07:15:11.399Z,3.60
2019-06-26T07:17:43.454Z,3.80
2019-06-26T07:20:14.687Z,3.63
2019-06-26T07:22:45.705Z,3.40
2019-06-26T07:25:16.839Z,3.20
2019-06-26T07:27:47.845Z,3.70
2019-06-26T07:30:19.332Z,3.90
2019-06-26T07:32:51.553Z,3.80
2019-06-26T07:35:22.621Z,3.27
2019-06-26T07:37:54.106Z,3.45
2019-06-26T07:40:25.823Z,3.85
2019-06-26T07:42:57.106Z,3.50
2019-06-26T07:45:28.204Z,3.27
2019-06-26T07:47:59.277Z,3.30
2019-06-26T07:50:32.539Z,3.27
2019-06-26T07:53:04.035Z,3.30
2019-06-26T07:55:35.037Z,3.00
2019-06-26T07:58:06.144Z,3.62
2019-06-26T08:00:38.291Z,3.83
2019-06-26T08:03:09.322Z,3.93
2019-06-26T08:05:42.821Z,3.93
2019-06-26T08:08:14.819Z,3.40
2019-06-26T08:10:47.211Z,3.50
2019-06-26T08:13:18.282Z,3.83
2019-06-26T08:15:49.635Z,3.97
2019-06-26T08:18:20.630Z,3.50
2019-06-26T08:21:07.467Z,3.80
2019-06-26T08:23:24.355Z,3.52
2019-06-26T08:25:55.426Z,3.20
2019-06-26T08:28:26.498Z,3.57
2019-06-26T08:30:57.482Z,3.37
2019-06-26T08:33:28.584Z,3.62
2019-06-26T08:35:59.595Z,3.30
2019-06-26T08:38:30.641Z,4.08
2019-06-26T08:41:01.632Z,3.55
2019-06-26T08:43:32.719Z,3.87
2019-06-26T08:46:03.724Z,3.35
2019-06-26T08:48:39.888Z,3.40
2019-06-26T08:51:07.419Z,3.57
2019-06-26T08:53:38.411Z,3.90
2019-06-26T08:56:09.431Z,3.77
2019-06-26T08:58:40.496Z,3.77
2019-06-26T09:01:11.495Z,3.87
2019-06-26T09:03:42.502Z,3.60
2019-06-26T09:06:13.513Z,3.80
2019-06-26T09:08:44.530Z,3.30
2019-06-26T09:11:15.535Z,3.60
2019-06-26T09:13:46.542Z,3.53
2019-06-26T09:16:18.522Z,3.80
2019-06-26T09:18:49.627Z,3.43
2019-06-26T09:21:20.615Z,3.27
2019-06-26T09:23:52.307Z,3.70
2019-06-26T09:26:23.298Z,3.43
2019-06-26T09:28:54.385Z,4.10
2019-06-26T09:31:25.466Z,3.60
2019-06-26T09:33:57.870Z,3.23
2019-06-26T09:36:29.053Z,3.70
2019-06-26T09:39:00.108Z,3.42
2019-06-26T09:41:31.168Z,3.70
2019-06-26T09:44:02.188Z,3.72
2019-06-26T09:46:33.287Z,3.85
2019-06-26T09:49:05.564Z,3.87
2019-06-26T09:51:36.734Z,3.02
2019-06-26T09:54:07.737Z,3.98
2019-06-26T09:56:39.012Z,3.62
2019-06-26T09:59:10.011Z,4.37
2019-06-26T10:01:41.014Z,4.10
2019-06-26T10:04:12.104Z,4.40
2019-06-26T10:06:43.125Z,3.67
2019-06-26T10:09:14.229Z,4.60
2019-06-26T10:11:45.358Z,3.53
2019-06-26T10:14:16.377Z,3.67
2019-06-26T10:16:47.431Z,3.50
2019-06-26T10:19:18.453Z,3.73
2019-06-26T10:21:49.448Z,3.50
2019-06-26T10:24:20.476Z,4.10
2019-06-26T10:26:51.530Z,4.10
2019-06-26T10:29:22.712Z,4.17
2019-06-26T10:31:54.480Z,3.98
2019-06-26T10:34:25.617Z,3.47
2019-06-26T10:36:58.033Z,4.10
2019-06-26T10:39:29.055Z,3.80
2019-06-26T10:42:00.149Z,3.60
2019-06-26T10:44:31.184Z,3.50
2019-06-26T10:47:02.216Z,3.47
2019-06-26T10:49:33.256Z,3.55
2019-06-26T10:52:04.404Z,3.40
2019-06-26T10:54:35.525Z,3.80
2019-06-26T10:57:06.597Z,3.73
2019-06-26T10:59:37.611Z,3.40
2019-06-26T11:02:09.394Z,3.83
2019-06-26T11:04:40.465Z,3.85
2019-06-26T11:07:11.459Z,3.47
2019-06-26T11:09:42.573Z,3.60
2019-06-26T11:12:13.623Z,3.62
2019-06-26T11:14:44.701Z,3.40
2019-06-26T11:17:16.769Z,3.40
2019-06-26T11:19:47.882Z,3.53
2019-06-26T11:22:18.905Z,3.60
2019-06-26T11:24:50.083Z,3.60
2019-06-26T11:27:21.321Z,3.40
2019-06-26T11:29:52.451Z,3.67
2019-06-26T11:32:23.535Z,3.33
2019-06-26T11:34:54.677Z,3.73
2019-06-26T11:37:25.691Z,4.13
2019-06-26T11:39:57.676Z,3.10
2019-06-26T11:42:32.612Z,3.37
2019-06-26T11:45:02.459Z,3.72
2019-06-26T11:47:33.456Z,3.90
2019-06-26T11:50:05.332Z,3.58
2019-06-26T11:52:36.340Z,3.70
2019-06-26T11:55:09.150Z,3.95
2019-06-26T11:57:40.207Z,3.60
2019-06-26T12:00:12.156Z,3.20
2019-06-26T12:02:43.308Z,3.27
2019-06-26T12:05:15.382Z,3.40
2019-06-26T12:07:46.883Z,3.90
2019-06-26T12:10:18.884Z,3.25
2019-06-26T12:12:49.885Z,4.07
2019-06-26T12:15:22.633Z,3.92
2019-06-26T12:17:55.043Z,3.92
2019-06-26T12:20:26.444Z,3.30
2019-06-26T12:22:57.555Z,3.73
2019-06-26T12:25:28.559Z,3.57
2019-06-26T12:27:59.634Z,3.95
2019-06-26T12:30:30.939Z,3.40
2019-06-26T12:33:03.676Z,3.50
2019-06-26T12:35:34.664Z,3.27
2019-06-26T12:38:06.537Z,3.35
2019-06-26T12:40:37.543Z,3.67
2019-06-26T12:43:08.536Z,4.13
2019-06-26T12:45:39.642Z,3.60
2019-06-26T12:48:10.776Z,3.05
2019-06-26T12:50:41.892Z,3.65
2019-06-26T12:53:12.888Z,3.50
2019-06-26T12:55:43.879Z,3.40
2019-06-26T12:58:19.477Z,3.15
2019-06-26T13:00:47.968Z,3.55
2019-06-26T13:03:18.965Z,3.30
2019-06-26T13:05:50.185Z,2.80
2019-06-26T13:08:21.177Z,3.12
2019-06-26T13:10:52.248Z,3.60
2019-06-26T13:13:23.384Z,3.58
2019-06-26T13:15:55.049Z,3.37
2019-06-26T13:18:26.052Z,3.35
2019-06-26T13:20:57.175Z,3.00
2019-06-26T13:23:28.222Z,2.77
2019-06-26T13:25:59.220Z,2.85
2019-06-26T13:28:30.264Z,3.17
2019-06-26T13:31:01.297Z,3.22
2019-06-26T13:33:32.419Z,3.17
2019-06-26T13:36:03.409Z,3.37
2019-06-26T13:38:34.440Z,3.60
2019-06-26T13:41:05.461Z,3.50
2019-06-26T13:43:36.474Z,4.20
2019-06-26T13:46:07.512Z,3.67
2019-06-26T13:48:38.502Z,3.27
2019-06-26T13:51:10.634Z,3.90
2019-06-26T13:53:42.031Z,3.63
2019-06-26T13:56:13.082Z,3.70
2019-06-26T13:58:44.107Z,3.57
2019-06-26T14:01:15.120Z,3.33
2019-06-26T14:03:46.121Z,3.35
2019-06-26T14:06:17.752Z,3.60
2019-06-26T14:08:48.831Z,3.72
2019-06-26T14:11:19.869Z,3.50
2019-06-26T14:13:50.895Z,3.72
2019-06-26T14:16:21.956Z,3.50
2019-06-26T14:18:53.021Z,3.70
2019-06-26T14:21:25.991Z,3.47
2019-06-26T14:23:56.805Z,3.77
2019-06-26T14:26:27.880Z,4.17
2019-06-26T14:28:58.911Z,3.70
2019-06-26T14:31:29.930Z,3.40
2019-06-26T14:34:01.031Z,4.17
2019-06-26T14:36:32.053Z,3.37
2019-06-26T14:39:03.369Z,3.67
2019-06-26T14:41:39.104Z,4.13
2019-06-26T14:44:08.945Z,3.42
2019-06-26T14:46:39.945Z,3.63
2019-06-26T14:49:10.946Z,3.63
2019-06-26T14:51:47.446Z,3.67
2019-06-26T14:54:15.954Z,3.30
2019-06-26T14:56:46.971Z,3.67
2019-06-26T14:59:18.111Z,3.77
2019-06-26T15:01:49.750Z,3.27
2019-06-26T15:04:20.771Z,3.70
2019-06-26T15:06:51.775Z,3.92
2019-06-26T15:09:22.854Z,3.83
2019-06-26T15:11:53.870Z,3.80
2019-06-26T15:14:24.977Z,3.90
2019-06-26T15:16:56.111Z,3.47
2019-06-26T17:02:32.964Z,3.70
2019-06-26T17:05:04.505Z,3.97
2019-06-26T17:07:35.624Z,3.40
2019-06-26T17:10:07.569Z,4.00
2019-06-26T17:12:38.661Z,4.03
2019-06-26T17:15:10.951Z,3.80
2019-06-26T17:17:42.000Z,3.90
2019-06-26T17:20:14.003Z,4.00
2019-06-26T17:22:45.004Z,3.40
2019-06-26T17:25:16.279Z,4.00
2019-06-26T17:27:47.292Z,3.87
2019-06-26T17:30:18.483Z,3.60
2019-06-26T17:32:49.488Z,3.47
2019-06-26T17:35:20.551Z,3.60
2019-06-26T17:37:51.647Z,4.00
2019-06-26T17:40:23.250Z,3.63
2019-06-26T17:43:08.212Z,4.00
2019-06-26T17:45:28.091Z,3.43
2019-06-26T17:47:59.090Z,3.97
2019-06-26T17:50:30.128Z,3.60
2019-06-26T17:53:01.208Z,3.40
2019-06-26T17:55:32.292Z,3.83
2019-06-26T17:58:03.295Z,3.70
2019-06-26T18:00:36.559Z,3.77
2019-06-26T18:03:07.619Z,3.57
2019-06-26T18:05:38.621Z,3.67
2019-06-26T18:08:09.638Z,4.23
2019-06-26T18:10:40.654Z,3.70
2019-06-26T18:13:11.685Z,3.77
2019-06-26T18:15:42.696Z,4.07
2019-06-26T18:18:13.711Z,3.58
2019-06-26T18:20:44.854Z,4.22
2019-06-26T18:23:15.893Z,4.00
2019-06-26T18:25:53.899Z,3.50
2019-06-26T18:28:19.661Z,3.47
2019-06-26T18:30:50.697Z,4.07
2019-06-26T18:33:21.767Z,4.40
2019-06-26T18:35:52.768Z,3.93
2019-06-26T18:38:23.786Z,4.63
2019-06-26T18:40:55.919Z,3.95
2019-06-26T18:43:27.192Z,4.67
2019-06-26T18:45:59.575Z,4.10
2019-06-26T18:48:30.624Z,4.58
2019-06-26T18:51:01.725Z,4.57
2019-06-26T18:53:32.915Z,4.20
2019-06-26T18:56:03.998Z,4.20
2019-06-26T18:58:35.078Z,3.90
2019-06-26T19:01:06.647Z,3.95
2019-06-26T19:03:37.663Z,3.52
2019-06-26T19:06:08.683Z,3.75
2019-06-26T19:08:39.688Z,4.03
2019-06-26T19:11:10.713Z,3.90
2019-06-26T19:13:41.785Z,3.87
2019-06-26T19:16:12.889Z,3.90
2019-06-26T19:18:43.993Z,3.83
2019-06-26T19:21:15.274Z,3.77
2019-06-26T19:23:46.436Z,4.10
2019-06-26T19:26:17.480Z,4.27
2019-06-26T19:28:48.498Z,4.50
2019-06-26T19:31:19.505Z,3.80
2019-06-26T19:33:50.569Z,4.07
2019-06-26T19:36:24.156Z,4.37
2019-06-26T19:38:54.390Z,3.87
2019-06-26T19:41:25.468Z,4.00
2019-06-26T19:43:56.482Z,4.27
2019-06-26T19:46:27.742Z,4.63
2019-06-26T19:48:58.837Z,4.20
2019-06-26T19:51:30.719Z,4.03
2019-06-26T19:54:01.685Z,4.12
2019-06-26T19:56:32.692Z,4.53
2019-06-26T19:59:03.778Z,3.90
2019-06-26T20:01:34.813Z,4.83
2019-06-26T20:04:05.931Z,4.30
2019-06-26T20:06:36.942Z,4.33
2019-06-26T20:09:08.304Z,4.58
2019-06-26T20:11:39.392Z,4.63
2019-06-26T20:14:10.417Z,4.72
2019-06-26T20:16:41.484Z,4.53
2019-06-26T20:19:12.513Z,5.00
2019-06-26T20:21:43.594Z,4.85
2019-06-26T20:24:15.962Z,4.40
2019-06-26T20:26:47.057Z,4.57
2019-06-26T20:29:18.056Z,4.58
2019-06-26T20:31:49.155Z,4.90
2019-06-26T20:34:19.024Z,5.10
2019-06-26T20:36:50.939Z,4.80
2019-06-26T20:39:21.953Z,4.73
2019-06-26T20:41:52.952Z,4.27
2019-06-26T20:44:24.094Z,5.00
2019-06-26T20:46:56.258Z,4.50
2019-06-26T20:49:27.370Z,4.53
2019-06-26T20:51:58.448Z,4.60
2019-06-26T20:54:29.453Z,4.80
2019-06-26T20:57:01.264Z,4.52
2019-06-26T20:59:32.283Z,4.67
2019-06-26T21:02:03.281Z,4.42
2019-06-26T21:04:34.387Z,4.30
2019-06-26T21:07:05.464Z,3.90
2019-06-26T21:09:37.471Z,4.10
2019-06-26T21:12:08.481Z,4.37
2019-06-26T21:14:39.496Z,4.67
2019-06-26T21:17:10.491Z,4.47
2019-06-26T21:19:41.587Z,4.13
2019-06-26T21:22:12.605Z,4.53
2019-06-26T21:24:43.624Z,4.47
2019-06-26T21:27:15.036Z,4.27
2019-06-26T21:29:46.029Z,4.60
2019-06-26T21:32:17.037Z,4.80
2019-06-26T21:34:48.046Z,4.03
2019-06-26T21:37:19.038Z,4.50
2019-06-26T21:39:50.042Z,4.90
2019-06-26T21:42:21.052Z,4.57
2019-06-26T21:44:52.118Z,5.17
2019-06-26T21:47:23.232Z,4.20
2019-06-26T21:49:54.256Z,4.03
2019-06-26T21:52:25.572Z,4.97
2019-06-26T21:54:56.639Z,4.63
2019-06-26T21:57:45.659Z,4.53
2019-06-26T22:00:36.583Z,4.17
2019-06-26T22:03:25.636Z,5.00
2019-06-26T22:05:58.291Z,5.10
2019-06-26T22:08:33.962Z,3.83
2019-06-26T22:11:06.665Z,4.47
2019-06-26T22:13:38.954Z,5.03
2019-06-26T22:16:10.019Z,5.20
2019-06-26T22:18:41.118Z,4.57
2019-06-26T22:21:12.134Z,5.00
2019-06-26T22:23:43.225Z,5.23
2019-06-26T22:26:14.579Z,4.90
2019-06-26T22:28:45.853Z,4.70
2019-06-26T22:31:16.957Z,4.97
2019-06-26T22:33:48.029Z,4.80
2019-06-26T22:36:19.048Z,5.27
2019-06-26T22:38:50.052Z,4.90
2019-06-26T22:41:21.175Z,5.80
2019-06-26T22:43:52.242Z,4.87
2019-06-26T22:46:23.644Z,5.10
2019-06-26T22:48:54.999Z,5.10
2019-06-26T22:51:26.025Z,4.93
2019-06-26T22:53:57.183Z,4.47
2019-06-26T22:56:28.319Z,4.90
2019-06-26T22:58:59.519Z,5.40
2019-06-26T23:01:31.558Z,5.48
2019-06-26T23:04:02.590Z,5.40
2019-06-26T23:06:37.209Z,4.30
2019-06-26T23:09:07.461Z,5.33
2019-06-26T23:11:39.627Z,5.00
2019-06-26T23:14:10.638Z,5.40
2019-06-26T23:16:41.664Z,5.83
2019-06-26T23:19:15.029Z,5.00
2019-06-26T23:21:46.171Z,4.87
2019-06-26T23:24:17.186Z,4.53
2019-06-26T23:26:48.189Z,4.70
2019-06-26T23:29:19.198Z,5.47
2019-06-26T23:31:50.210Z,4.45
2019-06-26T23:34:21.285Z,5.53
2019-06-26T23:36:52.388Z,4.83
2019-06-26T23:39:23.406Z,5.17
2019-06-26T23:41:54.420Z,4.70
2019-06-26T23:44:25.439Z,4.90
2019-06-26T23:46:56.950Z,4.73
2019-06-26T23:49:27.955Z,5.10
2019-06-26T23:51:58.989Z,4.43
2019-06-26T23:54:29.962Z,6.20
2019-06-26T23:57:01.520Z,5.10
2019-06-26T23:59:32.517Z,4.83
